sensor_id;sensor_type;location;lat;lon;timestamp;pressure;altitude;pressure_sealevel;temperature;humidity
36192;BME280;22233;42.708;23.360;2023-05-18T00:00:19;94913.34;;;14.10;83.54
36192;BME280;22233;42.708;23.360;2023-05-18T00:02:45;94915.97;;;14.19;82.72
36192;BME280;22233;42.708;23.360;2023-05-18T00:05:12;94902.97;;;14.16;82.42
36192;BME280;22233;42.708;23.360;2023-05-18T00:07:38;94904.75;;;13.96;82.46
36192;BME280;22233;42.708;23.360;2023-05-18T00:10:04;94912.25;;;13.71;83.41
36192;BME280;22233;42.708;23.360;2023-05-18T00:12:29;94922.03;;;14.00;82.06
36192;BME280;22233;42.708;23.360;2023-05-18T00:14:55;94915.50;;;14.17;80.98
36192;BME280;22233;42.708;23.360;2023-05-18T00:17:20;94918.09;;;14.26;80.41
36192;BME280;22233;42.708;23.360;2023-05-18T00:19:46;94924.06;;;14.15;80.15
36192;BME280;22233;42.708;23.360;2023-05-18T00:22:11;94921.97;;;13.96;81.52
36192;BME280;22233;42.708;23.360;2023-05-18T00:24:42;94910.88;;;14.05;80.30
36192;BME280;22233;42.708;23.360;2023-05-18T00:27:07;94912.69;;;13.73;81.50
36192;BME280;22233;42.708;23.360;2023-05-18T00:29:33;94913.84;;;14.00;80.11
36192;BME280;22233;42.708;23.360;2023-05-18T00:31:58;94922.94;;;14.04;80.33
36192;BME280;22233;42.708;23.360;2023-05-18T00:34:24;94923.81;;;13.80;81.50
36192;BME280;22233;42.708;23.360;2023-05-18T00:36:50;94926.13;;;13.66;82.66
36192;BME280;22233;42.708;23.360;2023-05-18T00:39:15;94915.78;;;13.59;82.36
36192;BME280;22233;42.708;23.360;2023-05-18T00:41:41;94923.53;;;13.57;82.97
36192;BME280;22233;42.708;23.360;2023-05-18T00:44:06;94908.06;;;13.61;82.91
36192;BME280;22233;42.708;23.360;2023-05-18T00:46:31;94927.97;;;13.37;84.92
36192;BME280;22233;42.708;23.360;2023-05-18T00:48:57;94922.28;;;13.54;84.45
36192;BME280;22233;42.708;23.360;2023-05-18T00:51:25;94925.03;;;13.42;85.17
36192;BME280;22233;42.708;23.360;2023-05-18T00:53:52;94914.38;;;13.77;83.22
36192;BME280;22233;42.708;23.360;2023-05-18T00:56:20;94910.41;;;13.75;84.20
36192;BME280;22233;42.708;23.360;2023-05-18T00:58:49;94918.38;;;13.68;84.17
36192;BME280;22233;42.708;23.360;2023-05-18T01:01:14;94914.53;;;13.69;84.57
36192;BME280;22233;42.708;23.360;2023-05-18T01:03:41;94906.59;;;13.27;85.67
36192;BME280;22233;42.708;23.360;2023-05-18T01:06:08;94915.38;;;13.45;85.52
36192;BME280;22233;42.708;23.360;2023-05-18T01:08:35;94912.38;;;13.50;85.23
36192;BME280;22233;42.708;23.360;2023-05-18T01:16:49;94913.19;;;13.38;84.99
36192;BME280;22233;42.708;23.360;2023-05-18T01:20:08;94918.88;;;12.96;87.16
36192;BME280;22233;42.708;23.360;2023-05-18T01:25:32;94925.50;;;13.44;84.20
36192;BME280;22233;42.708;23.360;2023-05-18T01:28:00;94916.84;;;13.30;84.93
36192;BME280;22233;42.708;23.360;2023-05-18T01:30:39;94925.00;;;13.17;85.39
36192;BME280;22233;42.708;23.360;2023-05-18T01:33:08;94921.97;;;13.31;85.15
36192;BME280;22233;42.708;23.360;2023-05-18T01:35:35;94919.44;;;13.26;85.35
36192;BME280;22233;42.708;23.360;2023-05-18T01:38:01;94918.50;;;13.71;83.38
36192;BME280;22233;42.708;23.360;2023-05-18T01:40:30;94916.00;;;13.78;82.74
36192;BME280;22233;42.708;23.360;2023-05-18T01:43:02;94917.81;;;13.74;83.15
36192;BME280;22233;42.708;23.360;2023-05-18T01:45:35;94913.09;;;13.87;81.90
36192;BME280;22233;42.708;23.360;2023-05-18T01:48:04;94910.97;;;13.81;82.01
36192;BME280;22233;42.708;23.360;2023-05-18T01:50:35;94911.31;;;13.79;82.56
36192;BME280;22233;42.708;23.360;2023-05-18T01:53:38;94923.03;;;13.79;82.65
36192;BME280;22233;42.708;23.360;2023-05-18T01:56:07;94926.53;;;13.92;82.08
36192;BME280;22233;42.708;23.360;2023-05-18T01:58:34;94929.88;;;13.61;83.57
36192;BME280;22233;42.708;23.360;2023-05-18T02:00:59;94936.56;;;13.76;83.20
36192;BME280;22233;42.708;23.360;2023-05-18T02:03:25;94919.72;;;13.74;83.13
36192;BME280;22233;42.708;23.360;2023-05-18T02:05:50;94908.88;;;13.49;83.40
36192;BME280;22233;42.708;23.360;2023-05-18T02:08:16;94924.66;;;13.56;83.46
36192;BME280;22233;42.708;23.360;2023-05-18T02:10:41;94914.75;;;13.64;83.06
36192;BME280;22233;42.708;23.360;2023-05-18T02:13:07;94917.97;;;13.94;82.25
36192;BME280;22233;42.708;23.360;2023-05-18T02:15:32;94923.72;;;13.64;83.07
36192;BME280;22233;42.708;23.360;2023-05-18T02:17:58;94919.13;;;13.52;83.41
36192;BME280;22233;42.708;23.360;2023-05-18T02:20:23;94934.03;;;13.95;82.40
36192;BME280;22233;42.708;23.360;2023-05-18T02:22:48;94927.16;;;14.02;81.78
36192;BME280;22233;42.708;23.360;2023-05-18T02:25:14;94923.81;;;14.21;81.31
36192;BME280;22233;42.708;23.360;2023-05-18T02:27:41;94921.56;;;14.10;81.45
36192;BME280;22233;42.708;23.360;2023-05-18T02:30:07;94933.06;;;14.04;80.89
36192;BME280;22233;42.708;23.360;2023-05-18T02:32:34;94927.13;;;14.14;80.85
36192;BME280;22233;42.708;23.360;2023-05-18T02:35:05;94918.53;;;13.47;83.73
36192;BME280;22233;42.708;23.360;2023-05-18T02:37:30;94939.09;;;13.69;83.46
36192;BME280;22233;42.708;23.360;2023-05-18T02:39:58;94927.38;;;13.56;84.73
36192;BME280;22233;42.708;23.360;2023-05-18T02:42:23;94930.09;;;13.56;85.30
36192;BME280;22233;42.708;23.360;2023-05-18T02:44:49;94938.88;;;13.62;84.35
36192;BME280;22233;42.708;23.360;2023-05-18T02:47:14;94945.09;;;13.62;84.11
36192;BME280;22233;42.708;23.360;2023-05-18T02:49:40;94948.47;;;13.96;83.06
36192;BME280;22233;42.708;23.360;2023-05-18T02:52:05;94936.16;;;14.02;82.83
36192;BME280;22233;42.708;23.360;2023-05-18T02:54:31;94940.59;;;14.07;82.70
36192;BME280;22233;42.708;23.360;2023-05-18T02:56:56;94952.22;;;13.91;83.18
36192;BME280;22233;42.708;23.360;2023-05-18T02:59:23;94954.19;;;13.78;84.24
36192;BME280;22233;42.708;23.360;2023-05-18T03:01:48;94958.31;;;14.13;82.50
36192;BME280;22233;42.708;23.360;2023-05-18T03:04:13;94955.78;;;14.20;81.78
36192;BME280;22233;42.708;23.360;2023-05-18T03:06:41;94973.91;;;14.12;82.61
36192;BME280;22233;42.708;23.360;2023-05-18T03:09:06;94979.25;;;14.21;82.30
36192;BME280;22233;42.708;23.360;2023-05-18T03:11:32;94964.75;;;14.33;81.70
36192;BME280;22233;42.708;23.360;2023-05-18T03:13:58;94980.63;;;14.43;81.42
36192;BME280;22233;42.708;23.360;2023-05-18T03:16:23;94985.91;;;14.64;81.35
36192;BME280;22233;42.708;23.360;2023-05-18T03:18:54;94985.66;;;14.69;80.77
36192;BME280;22233;42.708;23.360;2023-05-18T03:21:23;94991.84;;;14.54;80.76
36192;BME280;22233;42.708;23.360;2023-05-18T03:23:48;94979.25;;;14.49;81.01
36192;BME280;22233;42.708;23.360;2023-05-18T03:26:13;94999.47;;;14.61;80.12
36192;BME280;22233;42.708;23.360;2023-05-18T03:28:40;94999.03;;;14.58;80.16
36192;BME280;22233;42.708;23.360;2023-05-18T03:31:06;95001.66;;;14.55;80.75
36192;BME280;22233;42.708;23.360;2023-05-18T03:33:32;95002.78;;;14.54;80.59
36192;BME280;22233;42.708;23.360;2023-05-18T03:36:01;94996.53;;;14.25;81.54
36192;BME280;22233;42.708;23.360;2023-05-18T03:38:27;94995.47;;;14.30;81.46
36192;BME280;22233;42.708;23.360;2023-05-18T03:40:52;94998.00;;;14.23;81.59
36192;BME280;22233;42.708;23.360;2023-05-18T03:43:19;94996.53;;;14.25;81.80
36192;BME280;22233;42.708;23.360;2023-05-18T03:45:44;95009.66;;;14.07;83.07
36192;BME280;22233;42.708;23.360;2023-05-18T03:48:10;95008.63;;;14.12;82.61
36192;BME280;22233;42.708;23.360;2023-05-18T03:50:35;95006.63;;;13.72;84.98
36192;BME280;22233;42.708;23.360;2023-05-18T03:53:01;95006.94;;;14.07;82.91
36192;BME280;22233;42.708;23.360;2023-05-18T03:55:26;95016.78;;;14.24;82.17
36192;BME280;22233;42.708;23.360;2023-05-18T03:57:51;95022.47;;;14.31;81.80
36192;BME280;22233;42.708;23.360;2023-05-18T04:00:18;95011.75;;;14.26;81.53
36192;BME280;22233;42.708;23.360;2023-05-18T04:02:44;95020.00;;;14.14;81.84
36192;BME280;22233;42.708;23.360;2023-05-18T04:05:09;95001.75;;;14.18;81.72
36192;BME280;22233;42.708;23.360;2023-05-18T04:07:36;95013.66;;;14.38;81.32
36192;BME280;22233;42.708;23.360;2023-05-18T04:10:11;95017.25;;;14.54;81.07
36192;BME280;22233;42.708;23.360;2023-05-18T04:12:37;95026.09;;;14.35;80.96
36192;BME280;22233;42.708;23.360;2023-05-18T04:15:03;95038.25;;;14.38;81.10
36192;BME280;22233;42.708;23.360;2023-05-18T04:17:29;95034.47;;;14.43;81.51
36192;BME280;22233;42.708;23.360;2023-05-18T04:19:54;95017.41;;;14.46;80.65
36192;BME280;22233;42.708;23.360;2023-05-18T04:22:21;95024.03;;;14.45;81.27
36192;BME280;22233;42.708;23.360;2023-05-18T04:24:47;95039.59;;;14.04;82.93
36192;BME280;22233;42.708;23.360;2023-05-18T04:27:13;95035.84;;;14.36;82.03
36192;BME280;22233;42.708;23.360;2023-05-18T04:29:38;95029.38;;;14.41;81.51
36192;BME280;22233;42.708;23.360;2023-05-18T04:32:07;95031.34;;;14.28;82.60
36192;BME280;22233;42.708;23.360;2023-05-18T04:34:35;95023.47;;;14.39;82.07
36192;BME280;22233;42.708;23.360;2023-05-18T04:37:04;95031.50;;;14.60;80.44
36192;BME280;22233;42.708;23.360;2023-05-18T04:39:33;95029.53;;;14.61;81.11
36192;BME280;22233;42.708;23.360;2023-05-18T04:41:58;95030.34;;;14.21;82.60
36192;BME280;22233;42.708;23.360;2023-05-18T04:44:27;95037.09;;;14.11;83.51
36192;BME280;22233;42.708;23.360;2023-05-18T04:46:54;95046.81;;;14.24;82.91
36192;BME280;22233;42.708;23.360;2023-05-18T04:49:20;95049.25;;;14.13;83.12
36192;BME280;22233;42.708;23.360;2023-05-18T04:51:52;95052.28;;;14.24;82.99
36192;BME280;22233;42.708;23.360;2023-05-18T04:54:23;95042.09;;;14.09;82.58
36192;BME280;22233;42.708;23.360;2023-05-18T04:56:50;95048.63;;;14.32;81.67
36192;BME280;22233;42.708;23.360;2023-05-18T04:59:15;95059.88;;;14.43;81.65
36192;BME280;22233;42.708;23.360;2023-05-18T05:01:41;95054.78;;;14.29;82.25
36192;BME280;22233;42.708;23.360;2023-05-18T05:04:07;95055.84;;;14.65;80.87
36192;BME280;22233;42.708;23.360;2023-05-18T05:06:32;95068.72;;;14.52;81.27
36192;BME280;22233;42.708;23.360;2023-05-18T05:08:57;95081.22;;;14.25;81.86
36192;BME280;22233;42.708;23.360;2023-05-18T05:11:23;95077.81;;;14.69;81.08
36192;BME280;22233;42.708;23.360;2023-05-18T05:13:48;95064.34;;;14.76;80.23
36192;BME280;22233;42.708;23.360;2023-05-18T05:16:14;95078.03;;;14.76;80.60
36192;BME280;22233;42.708;23.360;2023-05-18T05:18:39;95080.09;;;14.95;79.90
36192;BME280;22233;42.708;23.360;2023-05-18T05:21:05;95084.66;;;14.63;80.90
36192;BME280;22233;42.708;23.360;2023-05-18T05:23:30;95074.94;;;14.77;80.06
36192;BME280;22233;42.708;23.360;2023-05-18T05:25:56;95075.72;;;14.78;79.83
36192;BME280;22233;42.708;23.360;2023-05-18T05:28:21;95079.44;;;14.57;80.43
36192;BME280;22233;42.708;23.360;2023-05-18T05:30:47;95080.47;;;14.53;78.85
36192;BME280;22233;42.708;23.360;2023-05-18T05:33:13;95095.06;;;14.45;79.85
36192;BME280;22233;42.708;23.360;2023-05-18T05:35:39;95087.81;;;14.24;78.99
36192;BME280;22233;42.708;23.360;2023-05-18T05:38:04;95095.78;;;14.17;80.65
36192;BME280;22233;42.708;23.360;2023-05-18T05:40:30;95084.06;;;14.04;79.99
36192;BME280;22233;42.708;23.360;2023-05-18T05:42:56;95102.34;;;14.53;78.80
36192;BME280;22233;42.708;23.360;2023-05-18T05:45:21;95096.22;;;14.31;78.95
36192;BME280;22233;42.708;23.360;2023-05-18T05:47:48;95103.28;;;14.45;79.16
36192;BME280;22233;42.708;23.360;2023-05-18T05:50:14;95096.81;;;14.25;79.67
36192;BME280;22233;42.708;23.360;2023-05-18T05:52:39;95106.44;;;14.34;79.90
36192;BME280;22233;42.708;23.360;2023-05-18T05:55:05;95088.09;;;14.47;79.28
36192;BME280;22233;42.708;23.360;2023-05-18T05:57:30;95109.19;;;15.15;81.59
36192;BME280;22233;42.708;23.360;2023-05-18T05:59:56;95096.66;;;14.86;79.51
36192;BME280;22233;42.708;23.360;2023-05-18T06:02:21;95114.13;;;14.82;78.98
36192;BME280;22233;42.708;23.360;2023-05-18T06:04:47;95109.78;;;14.81;79.06
36192;BME280;22233;42.708;23.360;2023-05-18T06:07:12;95110.34;;;14.86;78.48
36192;BME280;22233;42.708;23.360;2023-05-18T06:09:37;95093.16;;;14.33;80.51
36192;BME280;22233;42.708;23.360;2023-05-18T06:12:03;95110.66;;;14.44;80.00
36192;BME280;22233;42.708;23.360;2023-05-18T06:14:29;95110.19;;;14.42;80.18
36192;BME280;22233;42.708;23.360;2023-05-18T06:16:57;95115.56;;;14.38;79.10
36192;BME280;22233;42.708;23.360;2023-05-18T06:19:23;95094.06;;;14.37;78.99
36192;BME280;22233;42.708;23.360;2023-05-18T06:21:53;95112.44;;;14.52;78.83
36192;BME280;22233;42.708;23.360;2023-05-18T06:24:19;95116.38;;;14.27;79.66
36192;BME280;22233;42.708;23.360;2023-05-18T06:26:44;95118.56;;;14.21;80.22
36192;BME280;22233;42.708;23.360;2023-05-18T06:29:10;95129.91;;;14.35;79.34
36192;BME280;22233;42.708;23.360;2023-05-18T06:31:35;95122.63;;;14.39;78.95
36192;BME280;22233;42.708;23.360;2023-05-18T06:34:01;95130.06;;;14.27;79.51
36192;BME280;22233;42.708;23.360;2023-05-18T06:36:26;95128.50;;;14.54;79.19
36192;BME280;22233;42.708;23.360;2023-05-18T06:38:51;95130.78;;;14.52;78.96
36192;BME280;22233;42.708;23.360;2023-05-18T06:41:17;95126.03;;;14.49;78.98
36192;BME280;22233;42.708;23.360;2023-05-18T06:43:42;95138.06;;;14.72;77.96
36192;BME280;22233;42.708;23.360;2023-05-18T06:46:08;95130.56;;;14.69;77.73
36192;BME280;22233;42.708;23.360;2023-05-18T06:48:33;95137.16;;;14.68;77.59
36192;BME280;22233;42.708;23.360;2023-05-18T06:50:59;95152.13;;;14.99;76.62
36192;BME280;22233;42.708;23.360;2023-05-18T06:53:25;95155.16;;;15.10;75.05
36192;BME280;22233;42.708;23.360;2023-05-18T06:55:51;95146.16;;;15.37;75.57
36192;BME280;22233;42.708;23.360;2023-05-18T06:58:16;95143.53;;;15.29;72.83
36192;BME280;22233;42.708;23.360;2023-05-18T07:00:42;95146.09;;;15.22;73.07
36192;BME280;22233;42.708;23.360;2023-05-18T07:03:07;95162.16;;;15.51;72.25
36192;BME280;22233;42.708;23.360;2023-05-18T07:05:33;95167.69;;;15.55;71.84
36192;BME280;22233;42.708;23.360;2023-05-18T07:07:58;95170.47;;;15.71;72.80
36192;BME280;22233;42.708;23.360;2023-05-18T07:10:24;95164.00;;;15.63;73.14
36192;BME280;22233;42.708;23.360;2023-05-18T07:12:49;95173.44;;;15.78;71.20
36192;BME280;22233;42.708;23.360;2023-05-18T07:15:15;95169.59;;;15.67;68.61
36192;BME280;22233;42.708;23.360;2023-05-18T07:17:40;95173.25;;;15.87;68.99
36192;BME280;22233;42.708;23.360;2023-05-18T07:20:07;95174.13;;;15.75;69.23
36192;BME280;22233;42.708;23.360;2023-05-18T07:22:33;95185.00;;;15.87;69.98
36192;BME280;22233;42.708;23.360;2023-05-18T07:24:59;95184.50;;;15.82;70.17
36192;BME280;22233;42.708;23.360;2023-05-18T07:27:25;95177.34;;;15.65;69.17
36192;BME280;22233;42.708;23.360;2023-05-18T07:29:50;95191.59;;;15.70;70.23
36192;BME280;22233;42.708;23.360;2023-05-18T07:32:16;95198.44;;;15.92;69.83
36192;BME280;22233;42.708;23.360;2023-05-18T07:34:41;95195.78;;;15.80;69.42
36192;BME280;22233;42.708;23.360;2023-05-18T07:37:08;95187.84;;;15.63;67.72
36192;BME280;22233;42.708;23.360;2023-05-18T07:39:34;95183.63;;;15.65;67.81
36192;BME280;22233;42.708;23.360;2023-05-18T07:42:00;95194.66;;;15.69;67.86
36192;BME280;22233;42.708;23.360;2023-05-18T07:44:26;95207.09;;;15.22;70.22
36192;BME280;22233;42.708;23.360;2023-05-18T07:46:51;95204.25;;;15.47;68.32
36192;BME280;22233;42.708;23.360;2023-05-18T07:49:17;95205.84;;;15.48;68.55
36192;BME280;22233;42.708;23.360;2023-05-18T07:51:42;95201.31;;;15.40;68.36
36192;BME280;22233;42.708;23.360;2023-05-18T07:54:08;95218.28;;;15.45;68.40
36192;BME280;22233;42.708;23.360;2023-05-18T07:56:33;95218.53;;;15.40;66.80
36192;BME280;22233;42.708;23.360;2023-05-18T07:58:59;95219.66;;;15.51;66.56
36192;BME280;22233;42.708;23.360;2023-05-18T08:01:24;95218.31;;;15.61;66.82
36192;BME280;22233;42.708;23.360;2023-05-18T08:03:54;95215.19;;;15.47;66.03
36192;BME280;22233;42.708;23.360;2023-05-18T08:06:20;95227.81;;;15.35;66.66
36192;BME280;22233;42.708;23.360;2023-05-18T08:08:46;95234.09;;;15.24;66.73
36192;BME280;22233;42.708;23.360;2023-05-18T08:11:11;95239.59;;;15.24;67.57
36192;BME280;22233;42.708;23.360;2023-05-18T08:13:37;95243.63;;;15.42;67.74
36192;BME280;22233;42.708;23.360;2023-05-18T08:16:02;95236.69;;;15.61;66.73
36192;BME280;22233;42.708;23.360;2023-05-18T08:18:28;95240.31;;;15.65;66.79
36192;BME280;22233;42.708;23.360;2023-05-18T08:20:53;95250.72;;;15.59;67.10
36192;BME280;22233;42.708;23.360;2023-05-18T08:23:20;95250.88;;;15.50;66.32
36192;BME280;22233;42.708;23.360;2023-05-18T08:25:46;95251.13;;;15.45;66.26
36192;BME280;22233;42.708;23.360;2023-05-18T08:28:11;95255.69;;;15.41;66.04
36192;BME280;22233;42.708;23.360;2023-05-18T08:30:36;95257.97;;;15.51;66.36
36192;BME280;22233;42.708;23.360;2023-05-18T08:33:02;95273.03;;;15.45;66.26
36192;BME280;22233;42.708;23.360;2023-05-18T08:35:27;95258.19;;;15.18;67.41
36192;BME280;22233;42.708;23.360;2023-05-18T08:37:53;95266.53;;;15.50;66.91
36192;BME280;22233;42.708;23.360;2023-05-18T08:40:19;95280.69;;;15.80;66.46
36192;BME280;22233;42.708;23.360;2023-05-18T08:45:46;95269.13;;;15.87;64.76
36192;BME280;22233;42.708;23.360;2023-05-18T08:48:15;95270.56;;;15.96;64.75
36192;BME280;22233;42.708;23.360;2023-05-18T08:50:41;95280.22;;;16.06;64.61
36192;BME280;22233;42.708;23.360;2023-05-18T08:53:09;95283.75;;;16.07;64.87
36192;BME280;22233;42.708;23.360;2023-05-18T08:55:35;95284.44;;;16.20;64.94
36192;BME280;22233;42.708;23.360;2023-05-18T08:58:03;95280.69;;;16.24;65.30
36192;BME280;22233;42.708;23.360;2023-05-18T09:00:28;95298.44;;;16.14;64.19
36192;BME280;22233;42.708;23.360;2023-05-18T09:02:55;95299.16;;;16.27;65.07
36192;BME280;22233;42.708;23.360;2023-05-18T09:05:22;95307.81;;;16.29;65.17
36192;BME280;22233;42.708;23.360;2023-05-18T09:07:49;95297.19;;;16.28;63.80
36192;BME280;22233;42.708;23.360;2023-05-18T09:10:15;95310.78;;;16.08;64.52
36192;BME280;22233;42.708;23.360;2023-05-18T09:12:42;95295.41;;;16.20;64.31
36192;BME280;22233;42.708;23.360;2023-05-18T09:15:12;95310.31;;;16.34;64.41
36192;BME280;22233;42.708;23.360;2023-05-18T09:17:37;95311.06;;;16.19;63.80
36192;BME280;22233;42.708;23.360;2023-05-18T09:20:03;95311.78;;;16.16;64.19
36192;BME280;22233;42.708;23.360;2023-05-18T09:22:30;95313.63;;;16.28;62.51
36192;BME280;22233;42.708;23.360;2023-05-18T09:24:55;95306.91;;;16.25;62.97
36192;BME280;22233;42.708;23.360;2023-05-18T09:27:21;95314.25;;;16.21;61.26
36192;BME280;22233;42.708;23.360;2023-05-18T09:29:51;95322.53;;;16.09;63.39
36192;BME280;22233;42.708;23.360;2023-05-18T09:32:17;95309.84;;;16.16;62.33
36192;BME280;22233;42.708;23.360;2023-05-18T09:34:43;95312.13;;;16.14;62.44
36192;BME280;22233;42.708;23.360;2023-05-18T09:37:09;95321.75;;;16.08;62.17
36192;BME280;22233;42.708;23.360;2023-05-18T09:39:35;95319.38;;;15.78;61.24
36192;BME280;22233;42.708;23.360;2023-05-18T09:42:02;95323.91;;;15.87;62.33
36192;BME280;22233;42.708;23.360;2023-05-18T09:44:31;95326.84;;;15.94;62.16
36192;BME280;22233;42.708;23.360;2023-05-18T09:46:57;95318.44;;;15.87;63.49
36192;BME280;22233;42.708;23.360;2023-05-18T09:49:23;95328.94;;;15.85;64.43
36192;BME280;22233;42.708;23.360;2023-05-18T09:51:48;95330.66;;;16.05;63.67
36192;BME280;22233;42.708;23.360;2023-05-18T09:54:13;95333.94;;;16.11;64.09
36192;BME280;22233;42.708;23.360;2023-05-18T09:56:39;95342.59;;;16.57;62.35
36192;BME280;22233;42.708;23.360;2023-05-18T09:59:09;95333.38;;;16.49;65.14
36192;BME280;22233;42.708;23.360;2023-05-18T10:01:36;95338.25;;;16.72;63.48
36192;BME280;22233;42.708;23.360;2023-05-18T10:04:05;95335.00;;;16.98;62.36
36192;BME280;22233;42.708;23.360;2023-05-18T10:06:31;95339.25;;;17.11;63.42
36192;BME280;22233;42.708;23.360;2023-05-18T10:08:57;95329.03;;;17.12;62.51
36192;BME280;22233;42.708;23.360;2023-05-18T10:11:30;95344.28;;;17.09;60.98
36192;BME280;22233;42.708;23.360;2023-05-18T10:13:57;95336.28;;;17.20;60.50
36192;BME280;22233;42.708;23.360;2023-05-18T10:16:23;95346.00;;;17.33;60.78
36192;BME280;22233;42.708;23.360;2023-05-18T10:18:50;95343.47;;;17.25;63.10
36192;BME280;22233;42.708;23.360;2023-05-18T10:21:18;95341.75;;;16.85;64.29
36192;BME280;22233;42.708;23.360;2023-05-18T10:23:46;95358.38;;;16.92;62.92
36192;BME280;22233;42.708;23.360;2023-05-18T10:26:18;95356.41;;;16.76;63.76
36192;BME280;22233;42.708;23.360;2023-05-18T10:28:44;95354.94;;;16.35;64.53
36192;BME280;22233;42.708;23.360;2023-05-18T10:31:14;95356.41;;;16.16;63.23
36192;BME280;22233;42.708;23.360;2023-05-18T10:33:40;95357.47;;;16.56;62.91
36192;BME280;22233;42.708;23.360;2023-05-18T10:36:06;95361.59;;;16.66;63.83
36192;BME280;22233;42.708;23.360;2023-05-18T10:38:36;95362.44;;;16.66;64.51
36192;BME280;22233;42.708;23.360;2023-05-18T10:41:04;95367.66;;;16.87;62.97
36192;BME280;22233;42.708;23.360;2023-05-18T10:43:32;95367.91;;;16.66;65.13
36192;BME280;22233;42.708;23.360;2023-05-18T10:45:59;95375.25;;;17.10;65.22
36192;BME280;22233;42.708;23.360;2023-05-18T10:48:26;95371.47;;;17.14;63.44
36192;BME280;22233;42.708;23.360;2023-05-18T10:50:54;95374.66;;;16.85;62.75
36192;BME280;22233;42.708;23.360;2023-05-18T10:53:24;95379.56;;;16.63;65.73
36192;BME280;22233;42.708;23.360;2023-05-18T10:55:56;95380.84;;;16.97;63.75
36192;BME280;22233;42.708;23.360;2023-05-18T10:58:24;95371.91;;;17.16;64.04
36192;BME280;22233;42.708;23.360;2023-05-18T11:00:57;95393.78;;;17.48;61.09
36192;BME280;22233;42.708;23.360;2023-05-18T11:03:24;95389.19;;;17.01;62.57
36192;BME280;22233;42.708;23.360;2023-05-18T11:06:05;95387.56;;;17.16;62.39
36192;BME280;22233;42.708;23.360;2023-05-18T11:08:32;95396.25;;;17.02;62.19
36192;BME280;22233;42.708;23.360;2023-05-18T11:11:00;95396.19;;;17.14;62.72
36192;BME280;22233;42.708;23.360;2023-05-18T11:13:28;95393.97;;;16.44;64.16
36192;BME280;22233;42.708;23.360;2023-05-18T11:18:25;95392.88;;;16.33;64.85
36192;BME280;22233;42.708;23.360;2023-05-18T11:20:58;95397.47;;;16.73;64.17
36192;BME280;22233;42.708;23.360;2023-05-18T11:23:23;95407.06;;;16.51;64.50
36192;BME280;22233;42.708;23.360;2023-05-18T11:25:50;95402.44;;;16.39;65.31
36192;BME280;22233;42.708;23.360;2023-05-18T11:28:16;95406.59;;;16.05;66.11
36192;BME280;22233;42.708;23.360;2023-05-18T11:36:18;95426.31;;;15.45;67.22
36192;BME280;22233;42.708;23.360;2023-05-18T11:38:53;95434.97;;;15.35;68.39
36192;BME280;22233;42.708;23.360;2023-05-18T11:41:39;95413.53;;;15.37;68.23
36192;BME280;22233;42.708;23.360;2023-05-18T11:46:39;95417.41;;;15.73;67.50
36192;BME280;22233;42.708;23.360;2023-05-18T11:49:08;95422.66;;;15.78;67.04
36192;BME280;22233;42.708;23.360;2023-05-18T11:51:59;95434.06;;;15.68;68.00
36192;BME280;22233;42.708;23.360;2023-05-18T11:54:25;95426.06;;;15.63;67.64
36192;BME280;22233;42.708;23.360;2023-05-18T11:56:52;95419.91;;;15.66;67.28
36192;BME280;22233;42.708;23.360;2023-05-18T11:59:28;95413.69;;;15.28;68.16
36192;BME280;22233;42.708;23.360;2023-05-18T12:02:01;95433.06;;;15.48;68.19
36192;BME280;22233;42.708;23.360;2023-05-18T12:04:27;95432.38;;;15.38;68.54
36192;BME280;22233;42.708;23.360;2023-05-18T12:06:53;95429.97;;;15.25;69.59
36192;BME280;22233;42.708;23.360;2023-05-18T12:09:20;95432.94;;;15.07;69.30
36192;BME280;22233;42.708;23.360;2023-05-18T12:11:46;95432.25;;;15.10;69.08
36192;BME280;22233;42.708;23.360;2023-05-18T12:14:11;95431.00;;;15.20;68.23
36192;BME280;22233;42.708;23.360;2023-05-18T12:16:38;95443.91;;;15.32;69.40
36192;BME280;22233;42.708;23.360;2023-05-18T12:19:06;95451.50;;;15.51;69.13
36192;BME280;22233;42.708;23.360;2023-05-18T12:21:36;95446.19;;;15.30;68.40
36192;BME280;22233;42.708;23.360;2023-05-18T12:24:02;95448.34;;;15.12;69.06
36192;BME280;22233;42.708;23.360;2023-05-18T12:26:28;95454.59;;;15.25;70.14
36192;BME280;22233;42.708;23.360;2023-05-18T12:28:54;95450.94;;;15.45;70.66
36192;BME280;22233;42.708;23.360;2023-05-18T12:31:21;95441.84;;;15.53;70.65
36192;BME280;22233;42.708;23.360;2023-05-18T12:33:46;95454.97;;;15.23;70.47
36192;BME280;22233;42.708;23.360;2023-05-18T12:36:13;95453.31;;;15.59;71.03
36192;BME280;22233;42.708;23.360;2023-05-18T12:38:39;95458.69;;;15.43;70.38
36192;BME280;22233;42.708;23.360;2023-05-18T12:41:04;95448.31;;;15.61;70.07
36192;BME280;22233;42.708;23.360;2023-05-18T12:43:34;95453.69;;;15.57;70.28
36192;BME280;22233;42.708;23.360;2023-05-18T12:46:03;95456.06;;;15.71;71.01
36192;BME280;22233;42.708;23.360;2023-05-18T12:48:36;95448.78;;;15.88;67.88
36192;BME280;22233;42.708;23.360;2023-05-18T12:51:02;95427.22;;;15.74;69.81
36192;BME280;22233;42.708;23.360;2023-05-18T12:53:40;95454.63;;;15.49;68.56
36192;BME280;22233;42.708;23.360;2023-05-18T12:56:06;95458.47;;;15.48;68.45
36192;BME280;22233;42.708;23.360;2023-05-18T12:58:35;95461.34;;;15.52;70.06
36192;BME280;22233;42.708;23.360;2023-05-18T13:01:08;95460.28;;;15.69;69.78
36192;BME280;22233;42.708;23.360;2023-05-18T13:03:39;95442.28;;;15.68;69.88
36192;BME280;22233;42.708;23.360;2023-05-18T13:06:06;95467.50;;;15.86;69.19
36192;BME280;22233;42.708;23.360;2023-05-18T13:08:32;95467.38;;;15.82;70.78
36192;BME280;22233;42.708;23.360;2023-05-18T13:11:06;95468.63;;;15.85;70.21